Time;durP1;ratioP1;P1;durP2;ratioP2;P2;SDS_P1;SDS_P2;PMS_P1;PMS_P2;Temp;Humidity;BMP_temperature;BMP_pressure;BME280_temperature;BME280_humidity;BME280_pressure;Samples;Min_cycle;Max_cycle;Signal;HPM_P1;HPM_P2
2022/06/22 00:00:20;;;;;;;12.23;9.55;;;13.00;99.90;;;;;;5059755;28;20048;-76
2022/06/22 00:02:50;;;;;;;13.57;9.30;;;13.00;99.90;;;;;;5028237;28;20050;-76
2022/06/22 00:05:21;;;;;;;12.38;9.60;;;12.90;99.90;;;;;;5062646;28;20072;-76
2022/06/22 00:07:58;;;;;;;11.45;9.55;;;12.90;99.90;;;;;;5062768;28;20611;-76
2022/06/22 00:10:31;;;;;;;14.20;9.73;;;12.90;99.90;;;;;;5060511;28;20072;-77
2022/06/22 00:12:59;;;;;;;12.32;9.52;;;12.90;99.90;;;;;;5073363;28;20044;-76
2022/06/22 00:15:45;;;;;;;12.73;9.10;;;12.90;99.90;;;;;;5044446;28;20047;-76
2022/06/22 00:18:27;;;;;;;11.38;9.20;;;12.70;99.90;;;;;;5056973;28;20048;-76
2022/06/22 00:21:01;;;;;;;14.10;9.20;;;12.70;99.90;;;;;;5091332;28;20407;-77
2022/06/22 00:23:35;;;;;;;16.20;10.43;;;12.70;99.90;;;;;;5056271;28;20303;-78
2022/06/22 00:26:16;;;;;;;13.63;10.65;;;12.70;99.90;;;;;;5042532;28;20516;-76
2022/06/22 00:28:56;;;;;;;13.38;11.07;;;12.70;99.90;;;;;;5029295;28;20040;-76
2022/06/22 00:31:36;;;;;;;15.30;11.20;;;12.60;99.90;;;;;;5058524;28;20037;-76
2022/06/22 00:34:11;;;;;;;14.00;11.20;;;12.70;99.90;;;;;;5045055;28;20048;-77
2022/06/22 00:36:40;;;;;;;14.73;11.40;;;12.60;99.90;;;;;;5062226;28;20459;-76
2022/06/22 00:39:18;;;;;;;12.23;10.77;;;12.60;99.90;;;;;;5048075;28;20048;-76
2022/06/22 00:41:52;;;;;;;13.50;10.18;;;12.50;99.90;;;;;;5059316;28;20074;-76
2022/06/22 00:44:19;;;;;;;11.98;10.55;;;12.50;99.90;;;;;;5060777;28;20039;-76
2022/06/22 00:46:57;;;;;;;11.52;10.00;;;12.40;99.90;;;;;;5025450;28;20866;-76
2022/06/22 00:49:24;;;;;;;12.30;10.50;;;12.40;99.90;;;;;;5062365;28;20055;-76
2022/06/22 00:51:51;;;;;;;12.55;10.43;;;12.20;99.90;;;;;;5063036;28;20050;-76
2022/06/22 00:54:26;;;;;;;13.98;10.57;;;12.00;99.90;;;;;;5042076;28;20040;-76
2022/06/22 00:57:02;;;;;;;14.80;12.48;;;12.00;99.90;;;;;;5047518;28;20040;-75
2022/06/22 00:59:38;;;;;;;12.23;10.15;;;12.00;99.90;;;;;;5040062;28;20366;-76
2022/06/22 01:02:18;;;;;;;14.25;12.10;;;11.80;99.90;;;;;;5077733;28;20036;-76
2022/06/22 01:05:20;;;;;;;12.50;11.10;;;11.80;99.90;;;;;;5077208;28;20048;-75
2022/06/22 01:08:10;;;;;;;12.57;10.45;;;11.60;99.90;;;;;;4948288;28;20046;-76
2022/06/22 01:11:06;;;;;;;15.02;11.77;;;11.50;99.90;;;;;;5055883;28;20047;-76
2022/06/22 01:13:40;;;;;;;13.52;12.10;;;11.30;99.90;;;;;;5063207;28;20079;-76
2022/06/22 01:16:17;;;;;;;12.68;11.30;;;11.30;99.90;;;;;;5060444;28;20088;-76
2022/06/22 01:19:17;;;;;;;11.98;10.70;;;11.30;99.90;;;;;;5046516;28;20431;-76
2022/06/22 01:21:49;;;;;;;12.95;11.27;;;11.30;99.90;;;;;;5075572;28;20055;-76
2022/06/22 01:24:59;;;;;;;13.52;12.20;;;11.10;99.90;;;;;;5042941;28;20672;-76
2022/06/22 01:27:31;;;;;;;12.93;9.73;;;11.10;99.90;;;;;;5021731;28;20040;-77
2022/06/22 01:30:00;;;;;;;13.75;12.35;;;11.00;99.90;;;;;;5062268;28;20395;-77
2022/06/22 01:32:33;;;;;;;14.02;12.63;;;10.90;99.90;;;;;;5046114;28;20051;-78
2022/06/22 01:35:13;;;;;;;14.68;13.27;;;10.90;99.90;;;;;;5041876;28;20055;-77
2022/06/22 01:37:41;;;;;;;13.25;11.98;;;10.80;99.90;;;;;;5059804;28;20354;-77
2022/06/22 01:40:19;;;;;;;13.40;10.93;;;10.80;99.90;;;;;;5067382;28;20063;-77
2022/06/22 01:43:15;;;;;;;12.93;10.52;;;10.60;99.90;;;;;;5025980;28;20102;-77
2022/06/22 01:45:51;;;;;;;11.05;10.02;;;10.80;99.90;;;;;;5075243;28;20047;-75
2022/06/22 01:48:39;;;;;;;12.93;11.63;;;10.80;99.90;;;;;;5055332;28;20059;-76
2022/06/22 01:51:11;;;;;;;13.50;11.45;;;10.80;99.90;;;;;;5055717;28;21006;-76
2022/06/22 01:53:44;;;;;;;11.93;10.80;;;10.90;99.90;;;;;;5028620;28;20131;-75
2022/06/22 01:56:22;;;;;;;11.70;10.30;;;10.90;99.90;;;;;;5024558;28;20408;-76
2022/06/22 01:59:20;;;;;;;12.25;11.05;;;10.90;99.90;;;;;;5042391;28;20720;-75
2022/06/22 02:02:03;;;;;;;13.88;11.98;;;10.80;99.90;;;;;;5057319;28;20044;-76
2022/06/22 02:04:33;;;;;;;13.52;12.20;;;10.70;99.90;;;;;;5043616;28;20040;-75
2022/06/22 02:07:46;;;;;;;13.90;12.50;;;10.70;99.90;;;;;;5062345;28;20056;-75
2022/06/22 02:10:28;;;;;;;12.52;11.38;;;10.60;99.90;;;;;;5057447;28;20051;-76
2022/06/22 02:13:17;;;;;;;12.25;11.10;;;10.60;99.90;;;;;;5060655;28;20586;-76
2022/06/22 02:15:46;;;;;;;13.13;11.75;;;10.60;99.90;;;;;;5052998;28;20056;-75
2022/06/22 02:18:16;;;;;;;13.55;12.25;;;10.60;99.90;;;;;;5041852;28;20055;-75
2022/06/22 02:20:43;;;;;;;17.63;11.70;;;10.60;99.90;;;;;;5042316;28;20674;-76
2022/06/22 02:23:34;;;;;;;13.00;11.65;;;10.60;99.90;;;;;;5027539;28;20182;-76
2022/06/22 02:26:17;;;;;;;12.75;11.10;;;10.70;99.90;;;;;;5093222;28;20781;-77
2022/06/22 02:28:44;;;;;;;12.73;11.43;;;10.70;99.90;;;;;;5043238;28;20496;-76
2022/06/22 02:31:11;;;;;;;14.43;12.38;;;10.70;99.90;;;;;;5023853;28;20050;-76
2022/06/22 02:33:41;;;;;;;14.80;12.80;;;10.70;99.90;;;;;;5060503;28;20047;-76
2022/06/22 02:36:09;;;;;;;13.45;12.15;;;10.60;99.90;;;;;;5025344;28;20093;-77
2022/06/22 02:38:35;;;;;;;14.57;12.73;;;10.60;99.90;;;;;;5044689;28;20040;-76
2022/06/22 02:46:39;;;;;;;13.70;12.25;;;10.40;99.90;;;;;;5060546;28;20036;-76
2022/06/22 02:49:27;;;;;;;13.77;12.18;;;10.40;99.90;;;;;;5042622;28;20036;-76
2022/06/22 02:51:54;;;;;;;13.18;11.82;;;10.40;99.90;;;;;;5058964;28;20060;-76
2022/06/22 02:54:38;;;;;;;12.52;11.10;;;10.40;99.90;;;;;;5024089;28;20044;-77
2022/06/22 02:57:22;;;;;;;15.45;12.18;;;10.50;99.90;;;;;;5060420;28;20036;-77
2022/06/22 02:59:50;;;;;;;11.73;10.05;;;10.50;99.90;;;;;;5039374;28;20060;-76
2022/06/22 03:02:18;;;;;;;12.88;11.52;;;10.40;99.90;;;;;;5042883;28;20056;-76
2022/06/22 03:04:46;;;;;;;12.32;10.45;;;10.40;99.90;;;;;;5061796;28;20097;-76
2022/06/22 03:07:13;;;;;;;12.57;11.27;;;10.40;99.90;;;;;;5021561;28;20049;-76
2022/06/22 03:09:40;;;;;;;11.38;10.07;;;10.30;99.90;;;;;;5058104;28;20044;-77
2022/06/22 03:12:08;;;;;;;13.48;11.23;;;10.30;99.90;;;;;;5031986;28;20047;-76
2022/06/22 03:14:49;;;;;;;11.60;10.52;;;10.20;99.90;;;;;;5043806;28;20602;-76
2022/06/22 03:17:18;;;;;;;13.48;11.02;;;10.10;99.90;;;;;;5029324;28;20044;-76
2022/06/22 03:19:50;;;;;;;11.90;10.70;;;10.10;99.90;;;;;;5049599;28;20058;-76
2022/06/22 03:22:18;;;;;;;;;;;10.10;99.90;;;;;;5063352;28;20037;-76
2022/06/22 03:24:54;;;;;;;10.88;9.80;;;10.00;99.90;;;;;;5063608;28;20435;-76
2022/06/22 03:27:24;;;;;;;11.75;9.75;;;10.00;99.90;;;;;;5082335;28;20044;-76
2022/06/22 03:29:58;;;;;;;10.48;9.48;;;10.10;99.90;;;;;;5044763;28;20806;-77
2022/06/22 03:32:36;;;;;;;11.18;9.55;;;10.10;99.90;;;;;;5075897;28;20044;-76
2022/06/22 03:35:17;;;;;;;13.60;12.20;;;10.10;99.90;;;;;;5047189;28;20532;-76
2022/06/22 03:37:59;;;;;;;16.23;14.52;;;10.10;99.90;;;;;;5055188;28;20793;-76
2022/06/22 03:40:38;;;;;;;13.65;12.40;;;10.20;99.90;;;;;;5060821;28;20048;-76
2022/06/22 03:43:14;;;;;;;14.10;12.70;;;10.20;99.90;;;;;;5061195;28;22682;-76
2022/06/22 03:45:48;;;;;;;14.82;13.40;;;10.20;99.90;;;;;;5040014;28;20048;-76
2022/06/22 03:48:27;;;;;;;15.43;13.80;;;10.30;99.90;;;;;;5037792;28;20510;-77
2022/06/22 03:51:19;;;;;;;19.95;14.93;;;10.30;99.90;;;;;;5051741;28;20044;-76
2022/06/22 03:54:07;;;;;;;18.48;15.85;;;10.40;99.90;;;;;;5061417;28;20044;-77
2022/06/22 03:56:38;;;;;;;17.67;15.82;;;10.40;99.90;;;;;;5061856;28;20072;-77
2022/06/22 03:59:05;;;;;;;17.45;15.57;;;10.30;99.90;;;;;;5036777;28;20079;-76
2022/06/22 04:01:32;;;;;;;16.75;14.60;;;10.40;99.90;;;;;;5046150;28;20036;-76
2022/06/22 04:03:58;;;;;;;17.25;15.15;;;10.40;99.90;;;;;;5095860;27;20579;-76
2022/06/22 04:06:31;;;;;;;18.08;15.52;;;10.50;99.90;;;;;;5031519;28;20483;-76
2022/06/22 04:09:00;;;;;;;18.13;16.33;;;10.40;99.90;;;;;;5045657;28;20069;-76
2022/06/22 04:11:30;;;;;;;19.90;17.65;;;10.50;99.90;;;;;;5045814;28;20123;-76
2022/06/22 04:14:19;;;;;;;18.58;16.63;;;10.50;99.90;;;;;;5059673;28;20442;-75
2022/06/22 04:16:59;;;;;;;18.83;15.90;;;10.50;99.90;;;;;;5042731;28;20044;-76
2022/06/22 04:19:31;;;;;;;18.60;16.65;;;10.60;99.90;;;;;;5055898;28;20177;-76
2022/06/22 04:22:06;;;;;;;19.67;17.45;;;10.70;99.90;;;;;;5045051;28;20036;-76
2022/06/22 04:24:46;;;;;;;19.15;17.17;;;10.70;99.90;;;;;;5063159;28;20498;-77
2022/06/22 04:27:22;;;;;;;20.95;18.85;;;10.80;99.90;;;;;;5086200;28;20109;-77
2022/06/22 04:29:59;;;;;;;21.90;17.40;;;10.80;99.90;;;;;;5024001;28;20583;-77
2022/06/22 04:32:35;;;;;;;20.95;18.73;;;10.90;99.90;;;;;;5043951;28;20154;-77
2022/06/22 04:35:27;;;;;;;21.17;18.77;;;11.00;99.90;;;;;;5064159;28;20102;-77
2022/06/22 04:38:03;;;;;;;20.95;18.50;;;11.00;99.90;;;;;;5060638;28;20458;-77
2022/06/22 04:40:46;;;;;;;20.70;18.60;;;11.10;99.90;;;;;;5057318;28;20096;-77
2022/06/22 04:43:14;;;;;;;21.27;18.73;;;11.20;99.90;;;;;;5022699;28;20078;-77
2022/06/22 04:45:42;;;;;;;21.50;19.33;;;11.30;99.90;;;;;;5056486;28;20127;-77
2022/06/22 04:48:15;;;;;;;22.67;18.10;;;11.40;99.90;;;;;;5075384;28;20048;-77
2022/06/22 04:50:44;;;;;;;21.30;18.33;;;11.50;99.90;;;;;;5040015;28;20059;-77
2022/06/22 04:53:22;;;;;;;21.40;18.17;;;11.50;99.90;;;;;;5011801;28;20074;-77
2022/06/22 04:55:50;;;;;;;20.60;17.98;;;11.70;99.90;;;;;;5059501;28;20044;-76
2022/06/22 04:58:33;;;;;;;21.70;19.38;;;11.80;99.90;;;;;;5045247;28;20046;-76
2022/06/22 05:01:01;;;;;;;19.67;17.58;;;11.90;99.90;;;;;;5059361;28;20054;-77
2022/06/22 05:03:29;;;;;;;21.95;19.33;;;12.00;99.90;;;;;;5006310;28;20865;-77
2022/06/22 05:05:57;;;;;;;21.30;19.13;;;12.10;99.90;;;;;;5028753;28;20685;-75
2022/06/22 05:08:33;;;;;;;18.77;16.13;;;12.20;99.90;;;;;;5059642;28;20048;-79
2022/06/22 05:11:25;;;;;;;21.30;17.20;;;12.60;99.90;;;;;;5058489;28;20480;-78
2022/06/22 05:13:55;;;;;;;17.83;15.95;;;13.20;99.90;;;;;;5046705;28;20808;-76
2022/06/22 05:16:26;;;;;;;17.25;15.43;;;13.80;99.90;;;;;;5036541;28;20045;-76
2022/06/22 05:18:53;;;;;;;18.67;14.95;;;14.20;99.90;;;;;;5056609;28;20063;-77
2022/06/22 05:21:30;;;;;;;16.25;14.55;;;14.50;99.90;;;;;;5040370;28;20112;-77
2022/06/22 05:24:02;;;;;;;15.40;13.50;;;14.90;99.90;;;;;;5055671;28;20794;-77
2022/06/22 05:26:29;;;;;;;15.73;12.55;;;15.30;99.90;;;;;;5027094;28;20494;-77
2022/06/22 05:29:35;;;;;;;16.25;13.63;;;15.50;99.90;;;;;;5027803;28;20109;-77
2022/06/22 05:32:05;;;;;;;15.20;12.68;;;15.70;99.90;;;;;;5073253;28;20044;-78
2022/06/22 05:34:36;;;;;;;14.38;12.73;;;16.00;99.90;;;;;;5041117;28;20036;-77
2022/06/22 05:37:26;;;;;;;15.27;13.38;;;16.10;99.90;;;;;;5044282;28;20555;-78
2022/06/22 05:39:54;;;;;;;13.80;12.40;;;16.40;99.90;;;;;;5062810;28;20070;-78
2022/06/22 05:42:23;;;;;;;13.80;11.68;;;16.60;99.90;;;;;;5060215;28;20404;-78
2022/06/22 05:44:52;;;;;;;12.77;11.40;;;16.70;99.90;;;;;;5028201;28;20077;-78
2022/06/22 05:47:28;;;;;;;15.23;11.48;;;17.00;99.90;;;;;;5056997;28;20040;-78
2022/06/22 05:49:56;;;;;;;12.57;11.30;;;17.10;99.90;;;;;;5041057;28;20279;-78
2022/06/22 05:52:32;;;;;;;12.27;10.52;;;17.30;99.90;;;;;;5058780;28;20043;-75
2022/06/22 05:55:05;;;;;;;14.40;11.70;;;17.50;99.90;;;;;;5058278;28;20074;-75
2022/06/22 05:57:45;;;;;;;13.68;10.23;;;17.70;99.90;;;;;;5020391;28;20075;-76
2022/06/22 06:00:21;;;;;;;12.57;10.13;;;17.80;99.90;;;;;;5058037;28;20055;-76
2022/06/22 06:03:07;;;;;;;14.70;12.57;;;18.20;99.90;;;;;;5065312;28;20499;-76
2022/06/22 06:05:41;;;;;;;13.18;11.68;;;18.40;99.90;;;;;;5041867;28;20048;-75
2022/06/22 06:08:13;;;;;;;11.85;9.90;;;18.50;99.90;;;;;;5060599;28;20058;-76
2022/06/22 06:10:44;;;;;;;18.63;16.45;;;18.80;99.90;;;;;;5062977;28;20051;-77
2022/06/22 06:13:23;;;;;;;12.23;9.95;;;18.70;99.90;;;;;;5092697;28;20087;-76
2022/06/22 06:15:52;;;;;;;11.63;10.35;;;18.80;99.90;;;;;;5048957;28;20098;-75
2022/06/22 06:18:25;;;;;;;13.55;9.88;;;18.90;99.90;;;;;;5038665;28;20048;-77
2022/06/22 06:21:00;;;;;;;15.73;13.95;;;19.10;99.90;;;;;;5015125;28;20090;-77
2022/06/22 06:23:38;;;;;;;11.60;10.40;;;19.20;99.90;;;;;;5006274;28;20044;-76
2022/06/22 06:29:17;;;;;;;18.45;16.63;;;19.40;99.90;;;;;;5036795;28;20056;-77
2022/06/22 06:32:17;;;;;;;13.10;10.25;;;19.70;99.90;;;;;;5017381;28;20128;-77
2022/06/22 06:34:54;;;;;;;16.98;14.32;;;19.70;99.90;;;;;;5022098;28;20447;-77
2022/06/22 06:37:24;;;;;;;8.48;5.95;;;19.70;99.90;;;;;;5029231;28;20048;-77
2022/06/22 06:39:54;;;;;;;12.23;9.70;;;19.90;99.90;;;;;;5033877;28;20049;-77
2022/06/22 06:42:46;;;;;;;7.25;4.60;;;19.90;99.90;;;;;;5038703;28;20865;-77
2022/06/22 06:45:21;;;;;;;8.82;4.07;;;20.20;99.90;;;;;;5021773;28;20049;-77
2022/06/22 06:47:50;;;;;;;7.70;4.25;;;20.40;99.90;;;;;;5017974;28;20281;-76
2022/06/22 06:50:22;;;;;;;7.80;4.03;;;20.30;99.90;;;;;;5019206;28;20779;-75
2022/06/22 06:52:57;;;;;;;7.15;3.70;;;20.20;99.90;;;;;;5036332;28;20062;-77
2022/06/22 06:55:38;;;;;;;7.53;4.07;;;20.30;99.90;;;;;;5039687;28;20523;-76
2022/06/22 06:58:07;;;;;;;8.30;5.95;;;20.50;99.90;;;;;;5009421;28;20056;-76
2022/06/22 07:00:33;;;;;;;10.98;7.05;;;20.80;99.90;;;;;;5018885;28;20078;-76
2022/06/22 07:03:06;;;;;;;13.32;10.93;;;21.00;99.90;;;;;;5009335;28;20044;-76
2022/06/22 07:05:35;;;;;;;16.67;14.70;;;20.80;99.90;;;;;;5038844;28;20194;-76
2022/06/22 07:08:28;;;;;;;8.38;4.07;;;21.00;99.90;;;;;;5019361;28;20056;-80
2022/06/22 07:11:31;;;;;;;7.20;5.18;;;21.10;99.90;;;;;;4994832;28;20049;-76
2022/06/22 07:14:19;;;;;;;6.05;2.15;;;21.40;99.90;;;;;;5006304;28;20048;-75
2022/06/22 07:16:49;;;;;;;5.75;3.15;;;21.50;99.90;;;;;;5026510;28;20052;-76
2022/06/22 07:19:31;;;;;;;4.38;2.30;;;21.50;99.90;;;;;;5016128;28;20056;-77
2022/06/22 07:22:09;;;;;;;4.55;2.47;;;21.40;96.90;;;;;;5038820;28;20817;-77
2022/06/22 07:24:50;;;;;;;4.50;2.30;;;21.60;99.90;;;;;;5035622;28;20045;-78
2022/06/22 07:27:32;;;;;;;5.80;2.40;;;21.70;99.90;;;;;;5010425;28;20096;-78
2022/06/22 07:30:01;;;;;;;15.57;12.90;;;21.90;97.40;;;;;;5052812;28;20670;-77
2022/06/22 07:32:48;;;;;;;25.77;23.05;;;21.90;99.90;;;;;;5003039;28;20119;-77
2022/06/22 07:35:17;;;;;;;8.85;5.93;;;22.10;91.60;;;;;;4982646;28;20049;-77
2022/06/22 07:37:57;;;;;;;5.45;2.30;;;22.10;93.60;;;;;;5043570;28;20505;-77
2022/06/22 07:40:27;;;;;;;7.00;3.28;;;22.40;83.70;;;;;;5000512;28;21204;-77
2022/06/22 07:42:56;;;;;;;20.17;18.10;;;22.30;91.20;;;;;;5005927;28;20119;-77
2022/06/22 07:45:24;;;;;;;4.20;2.75;;;22.60;81.30;;;;;;5007431;28;20562;-78
2022/06/22 07:48:02;;;;;;;17.25;15.60;;;22.60;82.40;;;;;;5009133;28;20068;-77
2022/06/22 07:50:35;;;;;;;5.65;3.25;;;22.70;84.10;;;;;;5040093;28;20128;-77
2022/06/22 07:53:16;;;;;;;6.43;3.58;;;23.00;86.40;;;;;;5013343;28;20127;-77
2022/06/22 07:56:01;;;;;;;;;;;23.10;91.60;;;;;;5022703;28;20033;-78
2022/06/22 07:58:36;;;;;;;3.50;2.10;;;23.00;65.50;;;;;;5008362;28;19920;-78
2022/06/22 08:01:11;;;;;;;9.68;3.33;;;23.10;70.60;;;;;;5006978;28;20048;-77
2022/06/22 08:04:08;;;;;;;9.23;6.50;;;23.30;64.20;;;;;;5039621;28;20790;-78
2022/06/22 08:06:41;;;;;;;27.33;21.10;;;23.20;65.20;;;;;;5026067;28;20201;-78
2022/06/22 08:09:21;;;;;;;6.10;3.25;;;23.40;63.80;;;;;;5008773;28;20036;-78
2022/06/22 08:12:15;;;;;;;24.07;21.53;;;23.50;61.60;;;;;;5020096;28;20067;-78
2022/06/22 08:14:52;;;;;;;22.27;19.77;;;23.70;65.80;;;;;;5020458;28;20122;-77
2022/06/22 08:17:36;;;;;;;8.10;4.47;;;23.70;63.40;;;;;;5007252;28;20099;-78
2022/06/22 08:20:04;;;;;;;6.38;2.58;;;24.00;61.20;;;;;;5053656;28;20064;-77
2022/06/22 08:22:30;;;;;;;7.95;5.47;;;23.70;61.80;;;;;;5030258;28;20043;-78
2022/06/22 08:24:58;;;;;;;8.13;3.13;;;23.90;60.80;;;;;;5036736;28;20425;-77
2022/06/22 08:27:27;;;;;;;4.80;2.17;;;24.00;58.90;;;;;;5043468;28;20059;-78
2022/06/22 08:29:54;;;;;;;4.38;2.58;;;24.10;57.40;;;;;;5029020;28;20693;-78
2022/06/22 08:32:57;;;;;;;6.28;3.78;;;23.90;58.70;;;;;;5013097;28;22077;-78
2022/06/22 08:35:34;;;;;;;4.53;1.60;;;24.20;51.20;;;;;;5026417;28;20039;-78
2022/06/22 08:38:10;;;;;;;7.60;3.08;;;24.50;56.70;;;;;;5058833;28;20158;-78
2022/06/22 08:40:46;;;;;;;7.55;4.38;;;24.40;51.60;;;;;;5054919;28;20052;-78
2022/06/22 08:43:48;;;;;;;7.32;4.00;;;24.70;52.70;;;;;;5058202;28;20044;-80
2022/06/22 08:46:38;;;;;;;8.75;6.35;;;24.80;50.00;;;;;;5025749;28;20087;-77
2022/06/22 08:49:28;;;;;;;22.23;19.95;;;24.60;50.80;;;;;;5034417;28;20040;-79
2022/06/22 08:52:20;;;;;;;3.80;1.70;;;25.00;51.40;;;;;;5004856;28;20067;-79
2022/06/22 08:55:21;;;;;;;5.30;3.15;;;25.20;48.40;;;;;;5026863;28;20044;-79
2022/06/22 08:58:13;;;;;;;4.60;2.30;;;25.20;47.30;;;;;;5024741;28;20047;-77
2022/06/22 09:00:54;;;;;;;4.05;1.88;;;24.80;47.90;;;;;;5041191;28;20105;-82
2022/06/22 09:04:08;;;;;;;8.68;4.93;;;25.20;49.40;;;;;;5018233;28;20047;-79
2022/06/22 09:06:57;;;;;;;7.75;5.22;;;25.30;47.10;;;;;;5026104;28;20052;-82
2022/06/22 09:09:47;;;;;;;4.28;2.22;;;25.40;47.20;;;;;;5040087;28;20055;-80
2022/06/22 09:12:55;;;;;;;3.30;1.70;;;25.50;49.10;;;;;;5043959;28;20052;-78
2022/06/22 09:16:04;;;;;;;9.45;8.35;;;25.70;46.10;;;;;;5024820;28;20744;-79
2022/06/22 09:18:59;;;;;;;9.38;5.97;;;25.90;45.30;;;;;;5037531;28;20060;-78
2022/06/22 09:21:39;;;;;;;7.05;3.15;;;25.80;45.70;;;;;;5056698;28;20043;-79
2022/06/22 09:24:22;;;;;;;3.47;1.75;;;25.90;45.20;;;;;;5060163;28;20071;-79
2022/06/22 09:27:01;;;;;;;3.97;2.42;;;25.90;46.00;;;;;;5055544;28;20050;-79
2022/06/22 09:30:00;;;;;;;4.88;2.17;;;25.70;46.30;;;;;;5023923;28;20047;-79
2022/06/22 09:32:47;;;;;;;8.23;4.70;;;26.00;44.10;;;;;;5022584;28;20063;-79
2022/06/22 09:35:25;;;;;;;4.18;2.95;;;26.30;44.40;;;;;;5055811;28;20040;-78
2022/06/22 09:38:01;;;;;;;4.13;1.88;;;26.30;45.00;;;;;;5026648;28;20040;-79
2022/06/22 09:40:52;;;;;;;5.95;2.60;;;26.60;46.90;;;;;;5040066;28;20134;-79
2022/06/22 09:43:50;;;;;;;5.72;4.43;;;26.80;46.50;;;;;;5011808;28;20131;-78
2022/06/22 09:47:03;;;;;;;5.68;2.63;;;27.00;47.90;;;;;;5051471;28;20051;-78
2022/06/22 09:50:11;;;;;;;6.20;2.97;;;27.10;46.60;;;;;;5036572;28;20043;-79
2022/06/22 09:52:52;;;;;;;5.35;2.95;;;27.00;47.00;;;;;;5024703;28;20113;-75
2022/06/22 09:58:28;;;;;;;4.43;2.35;;;27.10;46.00;;;;;;5056806;28;19983;-78
2022/06/22 10:01:06;;;;;;;;;;;27.10;47.00;;;;;;5042932;28;20119;-76
2022/06/22 10:04:23;;;;;;;6.70;4.30;;;27.20;44.60;;;;;;5054701;28;20318;-77
2022/06/22 10:07:10;;;;;;;4.38;2.38;;;27.70;46.10;;;;;;5040288;28;20075;-77
2022/06/22 10:09:47;;;;;;;9.98;6.25;;;27.70;46.60;;;;;;5031581;28;20039;-77
2022/06/22 10:12:46;;;;;;;10.50;8.57;;;27.80;44.20;;;;;;5026092;28;20120;-77
2022/06/22 10:15:27;;;;;;;5.00;1.92;;;27.70;42.80;;;;;;5026987;28;20059;-77
2022/06/22 10:18:28;;;;;;;8.48;6.07;;;28.00;41.10;;;;;;5055480;28;20454;-77
2022/06/22 10:20:57;;;;;;;5.60;2.67;;;27.90;41.80;;;;;;5054456;28;20418;-77
2022/06/22 10:23:38;;;;;;;6.65;2.75;;;28.20;42.60;;;;;;5039559;28;20306;-77
2022/06/22 10:26:41;;;;;;;5.85;1.95;;;28.30;42.30;;;;;;5041799;28;20644;-79
2022/06/22 10:29:53;;;;;;;7.50;2.75;;;28.10;41.70;;;;;;5040944;28;20094;-78
2022/06/22 10:32:31;;;;;;;5.68;1.95;;;28.10;41.50;;;;;;5040839;28;20502;-79
2022/06/22 10:35:03;;;;;;;8.55;5.75;;;28.20;41.50;;;;;;5039519;28;20653;-78
2022/06/22 10:38:07;;;;;;;4.15;2.30;;;28.50;41.40;;;;;;5041617;28;20048;-79
2022/06/22 10:47:41;;;;;;;15.93;14.38;;;29.00;41.20;;;;;;5034725;28;20048;-79
2022/06/22 10:50:41;;;;;;;8.40;6.43;;;29.10;40.30;;;;;;5041423;28;20518;-78
2022/06/22 10:53:32;;;;;;;5.73;1.70;;;29.00;40.10;;;;;;5025730;28;20463;-78
2022/06/22 10:56:16;;;;;;;;;;;28.70;41.00;;;;;;5041315;28;20051;-79
2022/06/22 10:58:51;;;;;;;7.93;5.82;;;28.70;41.00;;;;;;5036102;28;19927;-80
2022/06/22 11:01:31;;;;;;;4.47;2.25;;;28.70;42.30;;;;;;5034783;28;20440;-78
2022/06/22 11:04:27;;;;;;;4.95;2.38;;;28.80;40.70;;;;;;5027883;28;20127;-78
2022/06/22 11:07:12;;;;;;;4.45;2.17;;;29.10;39.30;;;;;;5041671;28;20594;-78
2022/06/22 11:09:58;;;;;;;4.53;2.17;;;28.60;39.60;;;;;;5038719;28;20047;-78
2022/06/22 11:12:27;;;;;;;4.10;1.73;;;28.60;40.00;;;;;;5052758;28;20047;-78
2022/06/22 11:14:56;;;;;;;4.68;2.30;;;28.50;39.70;;;;;;5066459;28;20087;-78
2022/06/22 11:17:56;;;;;;;4.22;1.55;;;28.50;39.80;;;;;;5038768;28;20060;-79
2022/06/22 11:20:34;;;;;;;4.60;2.45;;;28.80;40.40;;;;;;5012959;28;20135;-78
2022/06/22 11:23:36;;;;;;;6.05;2.08;;;28.80;40.40;;;;;;5016385;28;20040;-78
2022/06/22 11:33:06;;;;;;;4.45;2.00;;;28.50;40.30;;;;;;5018268;28;20504;-79
2022/06/22 11:35:56;;;;;;;6.13;2.20;;;28.80;38.70;;;;;;5018036;28;20048;-78
2022/06/22 11:38:46;;;;;;;6.75;5.18;;;28.60;40.20;;;;;;5006581;28;20068;-77
2022/06/22 11:41:46;;;;;;;4.85;1.95;;;28.80;40.70;;;;;;5043846;28;20044;-77
2022/06/22 11:45:49;;;;;;;4.93;1.70;;;29.20;38.60;;;;;;5015559;28;20073;-78
2022/06/22 11:47:52;;;;;;;5.88;3.88;;;28.90;38.60;;;;;;4967329;28;20091;-78
2022/06/22 11:50:33;;;;;;;5.65;2.97;;;29.00;39.10;;;;;;5028671;28;20054;-79
2022/06/22 11:53:14;;;;;;;13.30;11.93;;;29.10;39.90;;;;;;5038122;28;20044;-81
2022/06/22 11:55:48;;;;;;;6.88;3.75;;;29.30;39.90;;;;;;5003287;28;20049;-80
2022/06/22 11:58:39;;;;;;;4.55;2.60;;;29.60;37.80;;;;;;5020558;28;20044;-80
2022/06/22 12:01:33;;;;;;;11.85;10.63;;;29.70;37.40;;;;;;5040537;28;20041;-80
2022/06/22 12:04:27;;;;;;;6.72;4.85;;;29.60;39.00;;;;;;5023858;28;20059;-81
2022/06/22 12:07:02;;;;;;;3.88;2.53;;;29.50;38.80;;;;;;5043479;28;20037;-81
2022/06/22 12:09:47;;;;;;;4.53;1.98;;;29.90;39.60;;;;;;5041209;28;20083;-81
2022/06/22 12:12:46;;;;;;;3.47;1.42;;;29.50;37.80;;;;;;5009114;28;20560;-81
2022/06/22 12:15:21;;;;;;;4.13;2.28;;;29.30;38.40;;;;;;5044248;28;20048;-80
2022/06/22 12:18:20;;;;;;;4.20;1.92;;;29.60;37.80;;;;;;5001512;28;20052;-80
2022/06/22 12:21:20;;;;;;;3.70;1.70;;;29.30;37.30;;;;;;5029518;28;20110;-80
2022/06/22 12:24:15;;;;;;;4.53;1.73;;;29.40;37.70;;;;;;5005722;28;20048;-81
2022/06/22 12:27:10;;;;;;;3.13;1.42;;;29.60;38.10;;;;;;5029034;28;20496;-81
2022/06/22 12:30:01;;;;;;;;;;;29.50;35.50;;;;;;5013985;28;20032;-81
2022/06/22 12:32:55;;;;;;;3.60;1.70;;;29.40;38.30;;;;;;5018593;28;19920;-81
2022/06/22 12:36:01;;;;;;;3.85;1.60;;;29.60;36.40;;;;;;4998184;28;20064;-81
2022/06/22 12:38:44;;;;;;;3.92;1.48;;;29.30;36.80;;;;;;5034849;28;20049;-81
2022/06/22 12:41:49;;;;;;;3.47;1.42;;;29.40;37.70;;;;;;5019652;28;20049;-81
2022/06/22 12:44:35;;;;;;;3.25;1.83;;;29.30;37.80;;;;;;5026422;28;20067;-79
2022/06/22 12:47:23;;;;;;;17.50;15.70;;;29.20;38.20;;;;;;5053123;28;20499;-81
2022/06/22 12:50:04;;;;;;;9.55;8.57;;;29.40;38.00;;;;;;5022395;28;20040;-79
2022/06/22 12:53:13;;;;;;;4.28;2.33;;;29.40;37.40;;;;;;5020583;28;20087;-81
2022/06/22 12:55:49;;;;;;;4.40;2.30;;;29.50;38.00;;;;;;5001597;28;20408;-80
2022/06/22 12:58:47;;;;;;;4.57;2.03;;;30.10;38.80;;;;;;5021770;28;20604;-81
2022/06/22 13:01:16;;;;;;;5.45;2.35;;;30.00;37.60;;;;;;5014310;28;20047;-81
2022/06/22 13:03:55;;;;;;;4.70;2.03;;;30.20;38.10;;;;;;5014513;28;20049;-81
2022/06/22 13:06:24;;;;;;;4.45;1.77;;;30.40;38.50;;;;;;5047326;28;20491;-81
2022/06/22 13:08:55;;;;;;;5.32;1.67;;;30.60;37.80;;;;;;4997328;28;20048;-80
2022/06/22 13:11:26;;;;;;;6.90;2.20;;;30.80;37.50;;;;;;5014021;28;20040;-79
2022/06/22 13:14:48;;;;;;;4.50;2.17;;;30.90;38.10;;;;;;5006460;28;20453;-81
2022/06/22 13:17:33;;;;;;;2.28;1.40;;;30.30;36.80;;;;;;5023678;28;20110;-88
2022/06/22 13:20:27;;;;;;;3.13;1.40;;;30.70;36.10;;;;;;5043487;28;20063;-89
2022/06/22 13:23:17;;;;;;;5.30;1.85;;;31.00;35.10;;;;;;5006940;28;20054;-81
2022/06/22 13:26:15;;;;;;;7.30;1.77;;;30.90;36.40;;;;;;5053606;28;20048;-81
2022/06/22 13:29:11;;;;;;;4.70;2.42;;;31.00;36.50;;;;;;5024868;28;20105;-79
2022/06/22 13:31:42;;;;;;;9.77;6.53;;;31.10;37.50;;;;;;5047378;28;20040;-82
2022/06/22 13:34:14;;;;;;;7.95;5.00;;;31.30;37.20;;;;;;5032077;28;20043;-81
2022/06/22 13:37:09;;;;;;;8.82;5.68;;;31.80;36.40;;;;;;5047002;28;20429;-81
2022/06/22 13:39:53;;;;;;;7.05;3.38;;;31.50;37.30;;;;;;5027245;28;20040;-81
2022/06/22 13:42:41;;;;;;;4.90;3.00;;;31.50;36.30;;;;;;5047990;28;20429;-81
2022/06/22 13:45:27;;;;;;;3.72;1.67;;;31.60;37.50;;;;;;5067766;28;20113;-81
2022/06/22 13:48:06;;;;;;;4.65;3.42;;;31.70;36.40;;;;;;5050343;28;20062;-82
2022/06/22 13:51:09;;;;;;;4.53;2.55;;;31.50;36.90;;;;;;5047120;28;20041;-81
2022/06/22 13:53:41;;;;;;;5.95;2.20;;;31.70;37.20;;;;;;5034632;28;20048;-81
2022/06/22 13:56:19;;;;;;;5.88;1.60;;;31.50;37.30;;;;;;5036022;28;20036;-82
2022/06/22 13:58:48;;;;;;;6.88;2.42;;;31.50;36.30;;;;;;5048766;28;20480;-81
2022/06/22 14:01:33;;;;;;;4.90;2.28;;;31.50;37.00;;;;;;5036795;28;20046;-81
2022/06/22 14:04:08;;;;;;;5.10;1.77;;;31.30;37.00;;;;;;5047740;28;20143;-81
2022/06/22 14:06:59;;;;;;;2.78;1.60;;;31.50;37.30;;;;;;5045785;28;20446;-80
2022/06/22 14:09:36;;;;;;;4.15;2.92;;;31.90;37.40;;;;;;5030079;28;20597;-81
2022/06/22 14:12:22;;;;;;;5.43;2.63;;;31.80;37.20;;;;;;5029567;28;20131;-81